Time;durP1;ratioP1;P1;durP2;ratioP2;P2;SDS_P1;SDS_P2;PMS_P1;PMS_P2;Temp;Humidity;BMP_temperature;BMP_pressure;BME280_temperature;BME280_humidity;BME280_pressure;Samples;Min_cycle;Max_cycle;Signal;HPM_P1;HPM_P2
2021/06/10 00:02:18;;;;;;;2.55;1.75;;;18.20;64.50;;;;;;5093234;28;20032;-80
2021/06/10 00:04:44;;;;;;;3.13;1.90;;;18.10;64.00;;;;;;5058912;28;20412;-80
2021/06/10 00:07:11;;;;;;;4.82;2.03;;;18.10;64.50;;;;;;5090649;28;20028;-80
2021/06/10 00:09:37;;;;;;;3.53;1.70;;;18.00;64.90;;;;;;5076323;28;20020;-81
2021/06/10 00:12:04;;;;;;;2.72;1.70;;;18.00;65.00;;;;;;5103845;28;20031;-81
2021/06/10 00:14:30;;;;;;;4.80;1.63;;;17.90;65.00;;;;;;5114892;28;20021;-80
2021/06/10 00:16:56;;;;;;;9.43;1.73;;;17.90;65.00;;;;;;5096356;28;20023;-80
2021/06/10 00:19:22;;;;;;;4.15;1.50;;;17.90;65.20;;;;;;5096505;28;20031;-80
2021/06/10 00:21:47;;;;;;;3.45;1.30;;;17.90;65.10;;;;;;5114762;28;20088;-80
2021/06/10 00:24:14;;;;;;;3.72;1.90;;;17.90;65.20;;;;;;5079736;28;20032;-80
2021/06/10 00:26:40;;;;;;;2.92;1.80;;;17.90;65.60;;;;;;5114755;28;20027;-80
2021/06/10 00:29:05;;;;;;;2.03;1.70;;;17.80;65.80;;;;;;5114562;28;20073;-80
2021/06/10 00:31:32;;;;;;;2.80;2.13;;;17.80;65.40;;;;;;5095966;28;20031;-80
2021/06/10 00:33:58;;;;;;;2.25;1.85;;;17.80;65.00;;;;;;5114777;28;20046;-80
2021/06/10 00:36:24;;;;;;;2.72;2.17;;;17.70;65.30;;;;;;5096276;28;20034;-80
2021/06/10 00:38:50;;;;;;;2.85;2.30;;;17.70;64.90;;;;;;5114421;28;20452;-80
2021/06/10 00:41:15;;;;;;;4.07;2.17;;;17.70;64.40;;;;;;5084237;28;20093;-80
2021/06/10 00:43:42;;;;;;;3.20;2.00;;;17.60;64.50;;;;;;5076121;28;20070;-80
2021/06/10 00:46:07;;;;;;;4.65;2.30;;;17.60;65.00;;;;;;5093792;28;20020;-80
2021/06/10 00:48:36;;;;;;;3.80;1.80;;;17.60;65.30;;;;;;5075945;28;20051;-80
2021/06/10 00:51:02;;;;;;;3.67;2.03;;;17.50;65.80;;;;;;5093873;28;20027;-80
2021/06/10 00:53:28;;;;;;;2.20;2.00;;;17.50;66.20;;;;;;5075715;28;20137;-80
2021/06/10 00:56:00;;;;;;;4.82;2.30;;;17.50;66.30;;;;;;5095177;28;20042;-80
2021/06/10 00:58:27;;;;;;;2.38;1.92;;;17.50;66.40;;;;;;5114221;28;20031;-80
2021/06/10 01:00:54;;;;;;;4.82;1.90;;;17.40;66.20;;;;;;5101192;28;20028;-80
2021/06/10 01:03:20;;;;;;;2.58;2.28;;;17.30;66.30;;;;;;5058787;28;20038;-80
2021/06/10 01:05:50;;;;;;;4.95;2.10;;;17.20;66.60;;;;;;5093622;28;20035;-80
2021/06/10 01:08:32;;;;;;;4.72;2.40;;;17.20;66.60;;;;;;5075429;28;20024;-80
2021/06/10 01:11:13;;;;;;;3.47;2.28;;;17.20;66.60;;;;;;5099224;28;20463;-80
2021/06/10 01:14:05;;;;;;;5.47;2.50;;;17.10;66.90;;;;;;5078938;28;20028;-80
2021/06/10 01:16:34;;;;;;;6.10;3.20;;;17.10;67.00;;;;;;5093395;28;20105;-80
2021/06/10 01:19:07;;;;;;;5.05;2.50;;;17.00;67.00;;;;;;5075580;28;20232;-80
2021/06/10 01:21:36;;;;;;;3.10;2.72;;;17.00;67.60;;;;;;5093651;28;20136;-80
2021/06/10 01:24:11;;;;;;;5.40;2.65;;;17.00;68.00;;;;;;5093541;28;20103;-80
2021/06/10 01:26:45;;;;;;;4.43;2.53;;;16.90;68.20;;;;;;5093389;28;20377;-80
2021/06/10 01:29:14;;;;;;;4.97;2.33;;;16.90;68.60;;;;;;5101149;28;20022;-80
2021/06/10 01:31:40;;;;;;;10.77;3.08;;;16.90;68.80;;;;;;5095556;28;20411;-80
2021/06/10 01:34:07;;;;;;;6.82;2.90;;;17.00;68.70;;;;;;5114101;28;20393;-81
2021/06/10 01:36:45;;;;;;;3.78;2.55;;;17.00;68.70;;;;;;5095277;28;20028;-80
2021/06/10 01:39:16;;;;;;;4.03;3.10;;;17.00;68.80;;;;;;5090823;28;20027;-80
2021/06/10 01:41:43;;;;;;;3.90;2.53;;;17.00;68.70;;;;;;5113020;28;20034;-80
2021/06/10 01:44:10;;;;;;;3.72;2.47;;;16.90;68.80;;;;;;5099132;28;20032;-80
2021/06/10 01:46:37;;;;;;;3.88;2.83;;;16.90;68.90;;;;;;5110820;28;20032;-79
2021/06/10 01:49:05;;;;;;;6.13;3.22;;;16.90;68.90;;;;;;5068191;28;20042;-80
2021/06/10 01:51:32;;;;;;;11.00;3.55;;;16.80;68.70;;;;;;5117485;28;20410;-80
2021/06/10 01:54:01;;;;;;;5.18;3.60;;;16.80;68.70;;;;;;5098745;28;20080;-80
2021/06/10 01:56:28;;;;;;;5.95;3.22;;;16.70;68.60;;;;;;5096140;28;20031;-80
2021/06/10 01:58:54;;;;;;;6.43;3.25;;;16.70;68.80;;;;;;5099485;28;20545;-80
2021/06/10 02:01:28;;;;;;;4.47;2.83;;;16.60;69.20;;;;;;5096961;28;20036;-80
2021/06/10 02:03:55;;;;;;;7.18;3.85;;;16.60;69.80;;;;;;5097045;28;20028;-80
2021/06/10 02:06:22;;;;;;;6.85;3.38;;;16.60;69.80;;;;;;5110276;28;20540;-80
2021/06/10 02:08:49;;;;;;;5.28;3.65;;;16.50;69.60;;;;;;5082200;28;20032;-80
2021/06/10 02:11:16;;;;;;;4.05;3.33;;;16.50;69.60;;;;;;5084697;28;20040;-80
2021/06/10 02:13:44;;;;;;;4.05;3.28;;;16.50;69.90;;;;;;5078695;28;20388;-80
2021/06/10 02:16:11;;;;;;;5.97;3.70;;;16.50;70.30;;;;;;5096697;28;20028;-80
2021/06/10 02:18:39;;;;;;;5.95;4.00;;;16.50;70.30;;;;;;5078744;28;20071;-80
2021/06/10 02:21:08;;;;;;;8.20;3.85;;;16.50;70.60;;;;;;5096714;28;20028;-80
2021/06/10 02:23:42;;;;;;;6.47;4.05;;;16.40;70.60;;;;;;5096739;28;20077;-80
2021/06/10 02:26:08;;;;;;;10.60;3.83;;;16.40;70.90;;;;;;5078436;28;20029;-80
2021/06/10 02:28:35;;;;;;;5.95;3.55;;;16.40;71.20;;;;;;5107696;28;20476;-80
2021/06/10 02:31:05;;;;;;;6.10;3.67;;;16.30;71.50;;;;;;5116906;28;20111;-80
2021/06/10 02:33:31;;;;;;;5.40;3.75;;;16.30;71.80;;;;;;5116846;28;20020;-80
2021/06/10 02:35:56;;;;;;;10.32;3.78;;;16.30;72.20;;;;;;5069172;28;20036;-80
2021/06/10 02:38:25;;;;;;;10.95;4.20;;;16.30;72.30;;;;;;5078336;28;20028;-80
2021/06/10 02:40:54;;;;;;;11.63;4.35;;;16.30;72.30;;;;;;5112358;28;20084;-80
2021/06/10 02:43:20;;;;;;;;;;;16.30;72.30;;;;;;5096965;28;20053;-80
2021/06/10 02:45:47;;;;;;;7.80;3.72;;;16.30;72.00;;;;;;5111811;28;19911;-80
2021/06/10 02:48:15;;;;;;;6.35;4.63;;;16.20;72.40;;;;;;5114335;28;20032;-80
2021/06/10 02:50:42;;;;;;;9.52;5.28;;;16.20;72.50;;;;;;5096057;28;20461;-80
2021/06/10 02:53:16;;;;;;;6.00;4.63;;;16.20;72.70;;;;;;5096174;28;20089;-80
2021/06/10 02:55:46;;;;;;;6.72;4.45;;;16.20;72.80;;;;;;5098123;28;20396;-80
2021/06/10 02:58:18;;;;;;;9.70;5.28;;;16.10;73.20;;;;;;5093291;28;20034;-80
2021/06/10 03:00:45;;;;;;;5.50;4.80;;;16.10;73.40;;;;;;5098121;28;20115;-80
2021/06/10 03:03:13;;;;;;;8.18;5.00;;;16.10;73.50;;;;;;5116494;28;20031;-80
2021/06/10 03:05:39;;;;;;;5.77;4.60;;;16.10;73.70;;;;;;5116182;28;20688;-80
2021/06/10 03:08:06;;;;;;;6.22;4.70;;;16.10;73.80;;;;;;5097786;28;20027;-80
2021/06/10 03:10:33;;;;;;;4.63;4.18;;;16.10;74.10;;;;;;5080981;28;20047;-80
2021/06/10 03:13:01;;;;;;;7.95;4.50;;;16.00;74.30;;;;;;5110705;28;20396;-79
2021/06/10 03:15:28;;;;;;;5.88;4.53;;;16.00;74.50;;;;;;5084014;28;20077;-80
2021/06/10 03:17:56;;;;;;;6.70;4.30;;;16.00;74.60;;;;;;5115924;28;20349;-80
2021/06/10 03:20:22;;;;;;;5.35;4.07;;;16.00;75.30;;;;;;5116019;28;20042;-80
2021/06/10 03:22:49;;;;;;;8.00;4.47;;;16.00;74.80;;;;;;5105740;28;20091;-80
2021/06/10 03:25:14;;;;;;;6.05;4.10;;;16.00;75.00;;;;;;5100098;28;20039;-80
2021/06/10 03:27:41;;;;;;;6.93;4.63;;;16.00;74.90;;;;;;5080663;28;20340;-80
2021/06/10 03:30:08;;;;;;;8.80;4.20;;;16.00;74.90;;;;;;5080137;28;20479;-80
2021/06/10 03:32:34;;;;;;;8.35;4.30;;;16.00;75.00;;;;;;5097348;28;20092;-80
2021/06/10 03:35:01;;;;;;;15.00;4.82;;;16.00;75.10;;;;;;5115629;28;20103;-79
2021/06/10 03:37:28;;;;;;;6.82;4.00;;;16.00;75.30;;;;;;5097211;28;20024;-80
2021/06/10 03:39:56;;;;;;;7.22;4.13;;;16.00;75.60;;;;;;5115142;28;20475;-80
2021/06/10 03:42:23;;;;;;;6.07;4.68;;;16.00;75.40;;;;;;5115133;28;20024;-80
2021/06/10 03:44:49;;;;;;;4.20;3.80;;;16.00;75.50;;;;;;5114570;28;20024;-80
2021/06/10 03:47:16;;;;;;;6.25;4.43;;;16.00;76.20;;;;;;5114978;28;20023;-80
2021/06/10 03:49:42;;;;;;;8.20;4.35;;;16.00;75.50;;;;;;5078921;28;20031;-79
2021/06/10 03:52:08;;;;;;;8.00;4.60;;;15.90;75.40;;;;;;5059638;28;20032;-80
2021/06/10 03:54:33;;;;;;;6.90;4.38;;;15.90;75.20;;;;;;5094392;28;20537;-80
2021/06/10 03:56:59;;;;;;;10.55;4.50;;;16.00;75.00;;;;;;5112563;28;20042;-80
2021/06/10 03:59:25;;;;;;;9.45;4.78;;;15.90;74.90;;;;;;5096948;28;20028;-80
2021/06/10 04:01:50;;;;;;;10.52;4.68;;;15.90;74.80;;;;;;5097175;28;20131;-80
2021/06/10 04:04:18;;;;;;;10.48;5.20;;;15.90;74.90;;;;;;5081184;28;20499;-79
2021/06/10 04:06:44;;;;;;;12.18;5.05;;;16.00;75.00;;;;;;5108323;28;20072;-79
2021/06/10 04:09:10;;;;;;;5.63;4.57;;;16.00;74.80;;;;;;5076730;28;20036;-80
2021/06/10 04:11:38;;;;;;;5.85;5.03;;;15.90;74.70;;;;;;5072977;28;20507;-80
2021/06/10 04:14:04;;;;;;;7.13;5.53;;;16.00;74.40;;;;;;5056114;28;20115;-80
2021/06/10 04:16:31;;;;;;;8.98;5.43;;;16.00;74.30;;;;;;5073812;28;20149;-80
2021/06/10 04:18:56;;;;;;;9.23;5.75;;;16.00;74.40;;;;;;5074765;28;20025;-79
2021/06/10 04:21:22;;;;;;;10.05;5.25;;;16.00;74.30;;;;;;5074204;28;20023;-80
2021/06/10 04:23:48;;;;;;;6.97;5.47;;;16.10;74.20;;;;;;5074211;28;20032;-80
2021/06/10 04:26:16;;;;;;;7.88;5.15;;;16.10;74.40;;;;;;5072884;28;20040;-80
2021/06/10 04:28:44;;;;;;;11.35;5.40;;;16.20;74.50;;;;;;5059512;28;20389;-80
2021/06/10 04:31:13;;;;;;;7.68;6.47;;;16.20;74.40;;;;;;5093229;28;20048;-80
2021/06/10 04:33:39;;;;;;;;;;;16.20;74.40;;;;;;5094544;28;20404;-80
2021/06/10 04:36:05;;;;;;;6.53;5.03;;;16.20;74.00;;;;;;5093162;28;19912;-80
2021/06/10 04:38:31;;;;;;;13.25;6.03;;;16.30;74.40;;;;;;5092940;28;20430;-80
2021/06/10 04:40:57;;;;;;;6.68;5.78;;;16.30;74.60;;;;;;5090734;28;20028;-80
2021/06/10 04:43:23;;;;;;;6.57;5.40;;;16.40;74.80;;;;;;5072636;28;20111;-80
2021/06/10 04:45:48;;;;;;;5.50;4.97;;;16.50;74.90;;;;;;5090740;28;20036;-79
2021/06/10 04:48:14;;;;;;;6.72;5.50;;;16.60;75.00;;;;;;5093763;28;20496;-80
2021/06/10 04:50:40;;;;;;;11.00;5.47;;;16.60;75.20;;;;;;5094035;28;20093;-80
2021/06/10 04:53:07;;;;;;;5.53;5.03;;;16.70;75.40;;;;;;5093751;28;20031;-80
2021/06/10 04:55:33;;;;;;;8.23;5.32;;;16.70;75.40;;;;;;5067192;28;20085;-80
2021/06/10 04:57:59;;;;;;;7.90;5.00;;;16.80;75.40;;;;;;5072098;28;20127;-81
2021/06/10 05:00:25;;;;;;;11.43;5.90;;;16.90;75.40;;;;;;5073775;28;20481;-80
2021/06/10 05:02:51;;;;;;;10.50;6.28;;;17.00;75.30;;;;;;5072109;28;20107;-80
2021/06/10 05:05:17;;;;;;;9.55;5.82;;;17.00;75.50;;;;;;5072176;28;20036;-80
2021/06/10 05:07:42;;;;;;;7.32;5.00;;;17.10;75.40;;;;;;5073462;28;20493;-80
2021/06/10 05:10:08;;;;;;;10.02;5.63;;;17.20;75.30;;;;;;5077618;28;20109;-80
2021/06/10 05:12:36;;;;;;;14.32;6.28;;;17.20;75.10;;;;;;5110385;28;20452;-80
2021/06/10 05:15:02;;;;;;;13.93;6.07;;;17.30;75.10;;;;;;5094996;28;20092;-80
2021/06/10 05:17:28;;;;;;;11.70;6.15;;;17.40;75.20;;;;;;5075725;28;20477;-80
2021/06/10 05:19:53;;;;;;;9.13;5.53;;;17.40;75.20;;;;;;5062221;28;20039;-80
2021/06/10 05:22:19;;;;;;;10.43;6.75;;;17.50;75.00;;;;;;5060371;28;20481;-80
2021/06/10 05:24:45;;;;;;;10.27;7.00;;;17.60;74.70;;;;;;5075666;28;20039;-80
2021/06/10 05:27:10;;;;;;;10.27;6.50;;;17.70;74.50;;;;;;5075287;28;20116;-80
2021/06/10 05:29:37;;;;;;;11.25;6.97;;;17.70;74.50;;;;;;5093717;28;20490;-80
2021/06/10 05:32:03;;;;;;;11.00;7.30;;;17.80;74.30;;;;;;5093112;28;20062;-80
2021/06/10 05:34:29;;;;;;;9.40;6.93;;;17.90;74.10;;;;;;5095520;28;20081;-80
2021/06/10 05:36:55;;;;;;;12.77;6.60;;;17.90;74.00;;;;;;5096835;28;20109;-80
2021/06/10 05:39:21;;;;;;;11.77;7.10;;;18.00;74.00;;;;;;5058519;28;20054;-80
2021/06/10 05:41:47;;;;;;;16.45;7.45;;;18.10;74.00;;;;;;5058838;28;20036;-80
2021/06/10 05:44:13;;;;;;;13.90;7.10;;;18.20;74.00;;;;;;5101121;28;20036;-79
2021/06/10 05:46:39;;;;;;;15.27;7.53;;;18.30;73.70;;;;;;5080606;28;20129;-80
2021/06/10 05:49:05;;;;;;;9.65;6.78;;;18.30;73.20;;;;;;5092965;28;20028;-80
2021/06/10 05:51:30;;;;;;;12.80;7.65;;;18.40;73.10;;;;;;5070123;28;20039;-80
2021/06/10 05:53:56;;;;;;;10.48;7.55;;;18.50;73.00;;;;;;5095423;28;20032;-80
2021/06/10 05:56:21;;;;;;;11.70;8.02;;;18.50;72.90;;;;;;5113327;28;20031;-80
2021/06/10 05:58:47;;;;;;;11.27;7.85;;;18.60;72.80;;;;;;5072144;28;20032;-80
2021/06/10 06:01:13;;;;;;;9.68;7.90;;;18.70;72.70;;;;;;5070153;28;20032;-80
2021/06/10 06:03:39;;;;;;;9.63;7.63;;;18.70;72.40;;;;;;5097205;28;20036;-80
2021/06/10 06:06:05;;;;;;;9.75;7.82;;;18.80;72.40;;;;;;5064698;28;20654;-80
2021/06/10 06:08:31;;;;;;;12.07;8.15;;;18.90;71.80;;;;;;5095805;28;20028;-80
2021/06/10 06:10:57;;;;;;;10.90;7.55;;;19.00;71.80;;;;;;5071674;28;20072;-80
2021/06/10 06:13:33;;;;;;;19.20;8.63;;;19.00;71.50;;;;;;5072722;28;20068;-80
2021/06/10 06:16:05;;;;;;;10.57;7.25;;;19.20;70.90;;;;;;5072815;28;20025;-80
2021/06/10 06:18:31;;;;;;;13.60;7.90;;;19.30;70.90;;;;;;5077510;28;20608;-80
2021/06/10 06:20:56;;;;;;;11.07;7.75;;;19.40;70.60;;;;;;5092137;28;20053;-79
2021/06/10 06:23:22;;;;;;;8.05;7.25;;;19.50;69.90;;;;;;5064398;28;20028;-80
2021/06/10 06:25:47;;;;;;;13.18;8.13;;;19.60;69.90;;;;;;5074071;28;20508;-80
2021/06/10 06:28:13;;;;;;;8.52;7.45;;;19.70;69.80;;;;;;5085314;28;20037;-78
2021/06/10 06:30:39;;;;;;;11.15;8.02;;;19.80;69.80;;;;;;5073806;28;20415;-79
2021/06/10 06:33:05;;;;;;;14.13;7.50;;;19.90;69.50;;;;;;5076339;28;20032;-80
2021/06/10 06:35:30;;;;;;;12.80;7.00;;;20.10;69.20;;;;;;5074922;28;20035;-80
2021/06/10 06:37:56;;;;;;;12.18;8.55;;;20.20;69.10;;;;;;5076318;28;20056;-80
2021/06/10 06:40:26;;;;;;;12.40;6.97;;;20.30;68.10;;;;;;5058706;28;20032;-79
2021/06/10 06:42:52;;;;;;;11.88;7.90;;;20.40;67.50;;;;;;5075051;28;20389;-80
2021/06/10 06:45:17;;;;;;;12.77;7.28;;;20.60;67.50;;;;;;5089071;28;20031;-80
2021/06/10 06:47:43;;;;;;;10.63;7.43;;;20.70;67.10;;;;;;5094941;28;20028;-79
2021/06/10 06:50:09;;;;;;;10.25;7.30;;;20.90;66.20;;;;;;5071820;28;20024;-80
2021/06/10 06:52:35;;;;;;;9.68;8.00;;;20.90;66.50;;;;;;5093955;28;20032;-79
2021/06/10 06:55:00;;;;;;;12.43;7.22;;;21.10;65.50;;;;;;5076619;28;20036;-80
2021/06/10 06:57:26;;;;;;;15.57;8.05;;;21.30;66.00;;;;;;5059369;28;20060;-79
2021/06/10 06:59:52;;;;;;;10.05;7.57;;;21.40;64.40;;;;;;5076106;28;20469;-80
2021/06/10 07:02:17;;;;;;;10.10;6.82;;;21.50;63.70;;;;;;5092762;28;20032;-80
2021/06/10 07:04:43;;;;;;;11.25;6.78;;;21.70;62.80;;;;;;5094615;28;20020;-80
2021/06/10 07:07:08;;;;;;;10.63;6.40;;;21.90;61.90;;;;;;5095887;28;20060;-80
2021/06/10 07:09:34;;;;;;;7.68;6.88;;;22.00;61.90;;;;;;5094689;28;20048;-80
2021/06/10 07:12:00;;;;;;;13.15;6.30;;;22.10;61.70;;;;;;5111650;28;20130;-80
2021/06/10 07:14:26;;;;;;;10.45;6.57;;;22.20;61.10;;;;;;5116376;28;20077;-80
2021/06/10 07:16:51;;;;;;;8.50;6.20;;;22.30;60.20;;;;;;5089278;28;20029;-80
2021/06/10 07:19:17;;;;;;;12.20;6.53;;;22.40;60.00;;;;;;5103858;28;20040;-79
2021/06/10 07:21:43;;;;;;;9.40;6.05;;;22.50;59.30;;;;;;5097890;28;20081;-80
2021/06/10 07:24:09;;;;;;;8.25;4.90;;;22.60;58.30;;;;;;5079139;28;20115;-79
2021/06/10 07:26:35;;;;;;;14.52;6.15;;;22.70;57.90;;;;;;5096141;28;20111;-80
2021/06/10 07:29:01;;;;;;;6.45;4.65;;;22.80;57.40;;;;;;5095164;28;20036;-80
2021/06/10 07:31:26;;;;;;;6.50;4.57;;;22.90;57.20;;;;;;5097359;28;20032;-80
2021/06/10 07:33:52;;;;;;;11.23;4.90;;;23.00;57.60;;;;;;5099860;28;20077;-85
2021/06/10 07:36:17;;;;;;;6.72;4.35;;;23.10;56.90;;;;;;5077135;28;20028;-82
2021/06/10 07:38:43;;;;;;;6.43;4.10;;;23.30;56.00;;;;;;5077319;28;20055;-82
2021/06/10 07:41:09;;;;;;;8.50;4.38;;;23.40;55.80;;;;;;5076229;28;20122;-82
2021/06/10 07:43:34;;;;;;;8.18;4.68;;;23.50;55.50;;;;;;5095516;28;20061;-82
2021/06/10 07:46:01;;;;;;;6.25;4.30;;;23.60;55.20;;;;;;5077784;28;20080;-82
2021/06/10 07:48:29;;;;;;;6.72;4.45;;;23.70;55.00;;;;;;5097201;28;20020;-82
2021/06/10 07:50:55;;;;;;;7.47;4.47;;;23.80;54.50;;;;;;5115505;28;20069;-82
2021/06/10 07:53:21;;;;;;;11.63;4.55;;;23.90;54.60;;;;;;5115447;28;20031;-82
2021/06/10 07:55:54;;;;;;;7.00;3.55;;;24.00;53.30;;;;;;5097144;28;20023;-82
2021/06/10 07:58:20;;;;;;;5.38;3.42;;;24.00;53.90;;;;;;5098459;28;20024;-82
2021/06/10 08:00:45;;;;;;;8.38;4.32;;;24.10;54.50;;;;;;5084921;28;20036;-82
2021/06/10 08:03:11;;;;;;;8.02;3.67;;;24.30;53.40;;;;;;5086692;28;20034;-82
2021/06/10 08:05:36;;;;;;;7.13;3.80;;;24.40;53.50;;;;;;5096863;28;20084;-81
2021/06/10 08:08:02;;;;;;;6.60;3.78;;;24.50;53.10;;;;;;5115149;28;20024;-82
2021/06/10 08:10:28;;;;;;;6.13;4.03;;;24.60;52.20;;;;;;5114991;28;20480;-82
2021/06/10 08:12:54;;;;;;;4.90;3.53;;;24.70;53.50;;;;;;5115058;28;20095;-81
2021/06/10 08:15:20;;;;;;;8.82;3.65;;;24.90;53.10;;;;;;5108331;28;20028;-82
2021/06/10 08:17:46;;;;;;;7.90;3.80;;;25.00;53.00;;;;;;5094847;28;20046;-82
2021/06/10 08:20:12;;;;;;;8.48;3.80;;;25.20;52.60;;;;;;5076484;28;20024;-82
2021/06/10 08:22:39;;;;;;;4.70;3.35;;;25.30;51.90;;;;;;5094535;28;20058;-82
2021/06/10 08:25:06;;;;;;;4.55;3.33;;;25.30;51.50;;;;;;5094368;28;20110;-82
2021/06/10 08:27:32;;;;;;;6.70;3.30;;;25.40;51.60;;;;;;5094259;28;20031;-75
2021/06/10 08:29:58;;;;;;;6.35;2.90;;;25.40;51.10;;;;;;5087922;28;20023;-75
2021/06/10 08:32:24;;;;;;;6.68;3.17;;;25.50;50.00;;;;;;5096084;28;20020;-75
2021/06/10 08:34:50;;;;;;;7.07;2.70;;;25.50;49.50;;;;;;5082627;28;20028;-75
2021/06/10 08:37:16;;;;;;;5.50;3.35;;;25.50;51.40;;;;;;5093796;28;20476;-76
2021/06/10 08:39:42;;;;;;;4.55;3.47;;;25.60;50.80;;;;;;5075675;28;20036;-75
2021/06/10 08:42:07;;;;;;;8.85;4.85;;;25.70;49.60;;;;;;5093482;28;20024;-75
2021/06/10 08:44:35;;;;;;;4.82;3.60;;;25.80;48.70;;;;;;5075401;28;20504;-75
2021/06/10 08:47:07;;;;;;;7.85;3.60;;;25.90;48.70;;;;;;5094873;28;20484;-75
2021/06/10 08:49:33;;;;;;;10.60;3.67;;;26.00;48.90;;;;;;5095625;28;20106;-75
2021/06/10 08:51:58;;;;;;;7.90;4.60;;;26.10;49.70;;;;;;5095301;28;20463;-76
2021/06/10 08:54:24;;;;;;;7.90;3.83;;;26.20;48.00;;;;;;5113474;28;20023;-75
2021/06/10 08:56:49;;;;;;;6.50;4.30;;;26.30;48.00;;;;;;5078527;28;20028;-75
2021/06/10 08:59:15;;;;;;;5.60;3.80;;;26.30;46.50;;;;;;5095270;28;20072;-76
2021/06/10 09:01:43;;;;;;;4.93;3.70;;;26.40;46.10;;;;;;5113500;28;20040;-74
2021/06/10 09:04:09;;;;;;;5.50;3.33;;;26.40;46.30;;;;;;5085375;28;20054;-75
2021/06/10 09:06:49;;;;;;;5.53;3.20;;;26.60;47.70;;;;;;5058607;28;20044;-75
2021/06/10 09:09:20;;;;;;;9.45;3.78;;;26.70;46.90;;;;;;5097035;28;20357;-75
2021/06/10 09:11:46;;;;;;;4.72;2.97;;;26.70;46.10;;;;;;5113510;28;20071;-76
2021/06/10 09:14:12;;;;;;;5.28;2.97;;;26.80;47.10;;;;;;5078614;28;20087;-75
2021/06/10 09:16:40;;;;;;;6.95;3.30;;;26.80;47.40;;;;;;5113703;28;20035;-75
2021/06/10 09:19:16;;;;;;;6.30;3.15;;;26.90;46.40;;;;;;5111764;28;20055;-75
2021/06/10 09:21:56;;;;;;;8.95;3.30;;;27.00;47.30;;;;;;5113498;28;20062;-75
2021/06/10 09:24:25;;;;;;;5.32;2.70;;;27.10;46.80;;;;;;5113271;28;20028;-75
2021/06/10 09:27:06;;;;;;;5.47;3.45;;;27.20;46.70;;;;;;5113436;28;20028;-75
2021/06/10 09:29:34;;;;;;;4.78;3.20;;;27.30;47.50;;;;;;5075033;28;20038;-75
2021/06/10 09:32:00;;;;;;;;;;;27.40;46.90;;;;;;5093574;28;20016;-75
2021/06/10 09:34:41;;;;;;;9.10;4.38;;;27.40;46.60;;;;;;5092935;28;19919;-75
2021/06/10 09:37:06;;;;;;;7.28;3.83;;;27.50;46.70;;;;;;5093160;28;20028;-75
2021/06/10 09:39:32;;;;;;;9.07;4.38;;;27.50;46.50;;;;;;5041373;28;20380;-76
2021/06/10 09:41:58;;;;;;;11.38;4.75;;;27.60;45.50;;;;;;5104644;28;20031;-75
2021/06/10 09:44:59;;;;;;;11.75;4.82;;;27.50;46.00;;;;;;5097166;28;20639;-75
2021/06/10 09:47:39;;;;;;;7.45;4.30;;;27.60;46.70;;;;;;5075021;28;20556;-75
2021/06/10 09:50:15;;;;;;;9.00;4.05;;;27.60;47.50;;;;;;5110906;28;20026;-75
2021/06/10 09:52:55;;;;;;;10.70;5.30;;;27.60;47.70;;;;;;5095049;28;20540;-76
2021/06/10 09:55:34;;;;;;;5.03;3.50;;;27.60;47.30;;;;;;5113249;28;20023;-75
2021/06/10 09:58:15;;;;;;;8.65;4.13;;;27.60;47.70;;;;;;5086010;28;20028;-75
2021/06/10 10:00:49;;;;;;;8.90;4.45;;;27.70;47.90;;;;;;5092745;28;20028;-75
2021/06/10 10:03:20;;;;;;;8.23;3.90;;;27.70;47.50;;;;;;5093037;28;20056;-75
2021/06/10 10:05:46;;;;;;;10.43;4.05;;;27.70;49.00;;;;;;5094125;28;20021;-75
2021/06/10 10:08:14;;;;;;;7.25;2.88;;;27.70;48.40;;;;;;5092381;28;20107;-75
2021/06/10 10:10:40;;;;;;;2.30;2.10;;;27.70;47.80;;;;;;5078762;28;20043;-78
2021/06/10 10:13:09;;;;;;;4.82;2.08;;;27.70;47.40;;;;;;5078804;28;20027;-78
2021/06/10 10:15:35;;;;;;;6.65;2.33;;;27.70;47.70;;;;;;5096834;28;20454;-78
2021/06/10 10:18:01;;;;;;;5.13;2.30;;;27.60;47.90;;;;;;5095507;28;20031;-78
2021/06/10 10:20:27;;;;;;;5.10;2.63;;;27.60;48.70;;;;;;5109259;28;20454;-78
2021/06/10 10:22:53;;;;;;;5.53;2.85;;;27.70;48.60;;;;;;5117067;28;20045;-78
2021/06/10 10:25:19;;;;;;;5.40;3.80;;;27.70;47.80;;;;;;5116943;28;20059;-78
2021/06/10 10:27:45;;;;;;;4.65;3.10;;;27.80;47.40;;;;;;5116804;28;20020;-78
2021/06/10 10:30:11;;;;;;;6.15;3.15;;;27.90;48.00;;;;;;5116947;28;20049;-78
2021/06/10 10:32:41;;;;;;;5.85;3.50;;;28.00;48.50;;;;;;5116832;28;20055;-79
2021/06/10 10:35:22;;;;;;;5.70;3.35;;;28.00;47.10;;;;;;5096134;28;20028;-78
2021/06/10 10:37:52;;;;;;;3.88;3.28;;;28.00;47.30;;;;;;5096213;28;20017;-78
2021/06/10 10:40:29;;;;;;;8.05;4.18;;;28.00;47.90;;;;;;5096008;28;20037;-78
2021/06/10 10:43:08;;;;;;;6.03;3.47;;;27.80;47.30;;;;;;5078053;28;20024;-78
2021/06/10 10:45:34;;;;;;;6.15;3.53;;;27.70;47.40;;;;;;5077780;28;20062;-79
2021/06/10 10:48:03;;;;;;;8.15;3.72;;;27.80;49.30;;;;;;5095881;28;20437;-79
2021/06/10 10:50:44;;;;;;;5.35;3.58;;;27.80;48.00;;;;;;5095691;28;20073;-78
2021/06/10 10:53:21;;;;;;;8.80;2.97;;;27.90;47.70;;;;;;5115886;28;20069;-79
2021/06/10 10:55:59;;;;;;;7.35;2.97;;;27.60;47.30;;;;;;5116362;28;20418;-79
2021/06/10 10:58:25;;;;;;;5.25;2.80;;;27.30;47.80;;;;;;5116607;28;20118;-79
2021/06/10 11:00:50;;;;;;;2.97;2.20;;;27.20;48.80;;;;;;5116434;28;20059;-78
2021/06/10 11:03:17;;;;;;;3.05;2.22;;;27.40;49.10;;;;;;5097822;28;20031;-78
2021/06/10 11:05:43;;;;;;;4.18;2.30;;;27.60;47.00;;;;;;5106787;28;20540;-78
2021/06/10 11:08:10;;;;;;;5.13;2.60;;;27.90;47.10;;;;;;5096345;28;20028;-79
2021/06/10 11:10:56;;;;;;;6.78;2.42;;;28.20;46.80;;;;;;5095376;28;20031;-79
2021/06/10 11:13:23;;;;;;;8.00;2.20;;;28.40;45.60;;;;;;5101640;28;20016;-78
2021/06/10 11:15:51;;;;;;;4.68;2.28;;;28.40;45.60;;;;;;5113275;28;20032;-78
2021/06/10 11:18:39;;;;;;;5.95;2.22;;;28.60;46.50;;;;;;5110432;28;20028;-78
2021/06/10 11:21:04;;;;;;;4.25;2.20;;;28.60;47.30;;;;;;5097933;28;20020;-78
2021/06/10 11:23:30;;;;;;;2.30;1.73;;;28.60;47.70;;;;;;5102647;28;20448;-78
2021/06/10 11:25:58;;;;;;;3.92;2.17;;;28.80;46.40;;;;;;5094481;28;20388;-85
2021/06/10 11:28:35;;;;;;;5.75;1.83;;;29.00;45.50;;;;;;5077759;28;20089;-85
2021/06/10 11:31:28;;;;;;;2.13;1.80;;;29.10;44.50;;;;;;5077581;28;20082;-86
2021/06/10 11:33:54;;;;;;;2.30;2.08;;;29.30;45.10;;;;;;5075053;28;20071;-83
2021/06/10 11:36:20;;;;;;;7.45;1.70;;;29.40;45.30;;;;;;5095318;28;20059;-83
2021/06/10 11:38:51;;;;;;;2.58;1.80;;;29.50;44.50;;;;;;5095387;28;20049;-84
2021/06/10 11:41:20;;;;;;;3.55;1.65;;;29.60;43.70;;;;;;5095792;28;20488;-85
2021/06/10 11:43:53;;;;;;;7.05;2.05;;;29.60;43.90;;;;;;5095342;28;20019;-86
2021/06/10 11:46:19;;;;;;;4.15;1.70;;;29.50;43.50;;;;;;5077135;28;20028;-84
2021/06/10 11:48:46;;;;;;;1.95;1.45;;;29.20;43.30;;;;;;5108885;28;20115;-84
2021/06/10 11:51:22;;;;;;;3.38;1.73;;;28.80;44.20;;;;;;5077358;28;20035;-83
2021/06/10 11:53:49;;;;;;;2.88;1.65;;;28.50;44.50;;;;;;5076947;28;20558;-85
2021/06/10 11:56:15;;;;;;;2.33;1.60;;;28.40;44.60;;;;;;5095115;28;20036;-84
2021/06/10 11:58:40;;;;;;;3.92;1.73;;;28.70;45.20;;;;;;5077069;28;20074;-85
2021/06/10 12:01:10;;;;;;;2.25;1.80;;;28.90;44.90;;;;;;5094960;28;20028;-84
2021/06/10 12:03:37;;;;;;;2.65;1.88;;;29.20;43.80;;;;;;5095308;28;20357;-84
2021/06/10 12:06:03;;;;;;;6.78;1.73;;;29.40;42.40;;;;;;5094910;28;20541;-84
2021/06/10 12:08:31;;;;;;;4.20;1.80;;;29.50;42.60;;;;;;5076775;28;20028;-84
2021/06/10 12:11:11;;;;;;;2.65;1.70;;;29.70;41.30;;;;;;5076961;28;20140;-83
2021/06/10 12:13:42;;;;;;;2.67;1.60;;;29.80;40.60;;;;;;5094687;28;20065;-83
2021/06/10 12:16:12;;;;;;;4.03;1.42;;;29.70;40.90;;;;;;5093413;28;20114;-83
2021/06/10 12:18:40;;;;;;;3.92;1.65;;;29.60;41.70;;;;;;5094656;28;20020;-84
2021/06/10 12:21:08;;;;;;;3.95;1.80;;;29.20;43.40;;;;;;5097609;28;20031;-83
2021/06/10 12:23:41;;;;;;;5.63;1.70;;;28.90;44.10;;;;;;5112567;28;20024;-86
2021/06/10 12:26:07;;;;;;;5.13;1.58;;;29.00;44.30;;;;;;5094622;28;20035;-86
2021/06/10 12:28:36;;;;;;;5.97;1.88;;;29.20;44.00;;;;;;5076063;28;20473;-86
2021/06/10 12:31:25;;;;;;;4.53;1.70;;;29.30;42.40;;;;;;5094544;28;20017;-86
2021/06/10 12:34:02;;;;;;;3.55;1.35;;;29.40;41.90;;;;;;5094928;28;20028;-86
2021/06/10 12:36:32;;;;;;;2.23;1.20;;;29.30;42.70;;;;;;5094612;28;20588;-86
2021/06/10 12:39:09;;;;;;;3.00;1.77;;;29.30;42.40;;;;;;5094631;28;20024;-86
2021/06/10 12:41:47;;;;;;;3.85;1.42;;;29.40;41.90;;;;;;5076062;28;20031;-86
2021/06/10 12:44:26;;;;;;;2.55;1.45;;;29.50;41.60;;;;;;5059282;28;20066;-86
2021/06/10 12:46:58;;;;;;;2.22;1.13;;;29.70;41.50;;;;;;5095816;28;20035;-85
2021/06/10 12:49:49;;;;;;;1.45;1.30;;;29.80;40.60;;;;;;5102906;28;20024;-86
2021/06/10 12:52:26;;;;;;;8.80;1.52;;;29.90;40.00;;;;;;5096221;28;20020;-85